sensor_id;sensor_type;location;lat;lon;timestamp;temperature;humidity
11764;DHT22;5939;56.522;14.950;2023-08-24T00:00:42;18.50;99.90
11764;DHT22;5939;56.522;14.950;2023-08-24T00:03:10;18.40;99.90
11764;DHT22;5939;56.522;14.950;2023-08-24T00:05:36;18.50;99.90
11764;DHT22;5939;56.522;14.950;2023-08-24T00:08:06;18.40;99.90
11764;DHT22;5939;56.522;14.950;2023-08-24T00:10:33;18.40;99.90
11764;DHT22;5939;56.522;14.950;2023-08-24T00:12:59;18.40;99.90
11764;DHT22;5939;56.522;14.950;2023-08-24T00:15:26;18.40;99.90
11764;DHT22;5939;56.522;14.950;2023-08-24T00:17:52;18.40;99.90
11764;DHT22;5939;56.522;14.950;2023-08-24T00:20:18;18.40;99.90
11764;DHT22;5939;56.522;14.950;2023-08-24T00:22:45;18.30;99.90
11764;DHT22;5939;56.522;14.950;2023-08-24T00:25:11;18.30;99.90
11764;DHT22;5939;56.522;14.950;2023-08-24T00:27:38;18.30;99.90
11764;DHT22;5939;56.522;14.950;2023-08-24T00:30:05;18.30;99.90
11764;DHT22;5939;56.522;14.950;2023-08-24T00:32:32;18.30;99.90
11764;DHT22;5939;56.522;14.950;2023-08-24T00:35:03;18.30;99.90
11764;DHT22;5939;56.522;14.950;2023-08-24T00:37:30;18.30;99.90
11764;DHT22;5939;56.522;14.950;2023-08-24T00:39:56;18.20;99.90
11764;DHT22;5939;56.522;14.950;2023-08-24T00:42:22;18.20;99.90
11764;DHT22;5939;56.522;14.950;2023-08-24T00:44:49;18.20;99.90
11764;DHT22;5939;56.522;14.950;2023-08-24T00:47:15;18.20;99.90
11764;DHT22;5939;56.522;14.950;2023-08-24T00:49:41;18.20;99.90
11764;DHT22;5939;56.522;14.950;2023-08-24T00:52:07;18.20;99.90
11764;DHT22;5939;56.522;14.950;2023-08-24T00:54:33;18.10;99.90
11764;DHT22;5939;56.522;14.950;2023-08-24T00:57:00;18.20;99.90
11764;DHT22;5939;56.522;14.950;2023-08-24T00:59:26;18.10;99.90
11764;DHT22;5939;56.522;14.950;2023-08-24T01:01:52;18.10;99.90
11764;DHT22;5939;56.522;14.950;2023-08-24T01:04:18;18.10;99.90
11764;DHT22;5939;56.522;14.950;2023-08-24T01:06:44;18.10;99.90
11764;DHT22;5939;56.522;14.950;2023-08-24T01:09:10;18.00;99.90
11764;DHT22;5939;56.522;14.950;2023-08-24T01:14:28;18.00;99.90
11764;DHT22;5939;56.522;14.950;2023-08-24T01:16:58;18.00;99.90
11764;DHT22;5939;56.522;14.950;2023-08-24T01:19:43;18.00;99.90
11764;DHT22;5939;56.522;14.950;2023-08-24T01:25:12;17.90;99.90
11764;DHT22;5939;56.522;14.950;2023-08-24T01:27:39;17.90;99.90
11764;DHT22;5939;56.522;14.950;2023-08-24T01:30:06;17.90;99.90
11764;DHT22;5939;56.522;14.950;2023-08-24T01:32:32;17.90;99.90
11764;DHT22;5939;56.522;14.950;2023-08-24T01:35:03;17.90;99.90
11764;DHT22;5939;56.522;14.950;2023-08-24T01:37:29;17.80;99.90
11764;DHT22;5939;56.522;14.950;2023-08-24T01:42:27;17.80;99.90
11764;DHT22;5939;56.522;14.950;2023-08-24T01:44:57;17.80;99.90
11764;DHT22;5939;56.522;14.950;2023-08-24T01:47:26;17.80;99.90
11764;DHT22;5939;56.522;14.950;2023-08-24T01:49:53;17.80;99.90
11764;DHT22;5939;56.522;14.950;2023-08-24T01:52:19;17.80;99.90
11764;DHT22;5939;56.522;14.950;2023-08-24T01:54:45;17.70;99.90
11764;DHT22;5939;56.522;14.950;2023-08-24T01:57:13;17.70;99.90
11764;DHT22;5939;56.522;14.950;2023-08-24T01:59:38;17.70;99.90
11764;DHT22;5939;56.522;14.950;2023-08-24T02:02:04;17.70;99.90
11764;DHT22;5939;56.522;14.950;2023-08-24T02:04:30;17.60;99.90
11764;DHT22;5939;56.522;14.950;2023-08-24T02:06:56;17.60;99.90
11764;DHT22;5939;56.522;14.950;2023-08-24T02:09:21;17.60;99.90
11764;DHT22;5939;56.522;14.950;2023-08-24T02:11:47;17.60;99.90
11764;DHT22;5939;56.522;14.950;2023-08-24T02:14:13;17.60;99.90
11764;DHT22;5939;56.522;14.950;2023-08-24T02:16:38;17.60;99.90
11764;DHT22;5939;56.522;14.950;2023-08-24T02:19:05;17.60;99.90
11764;DHT22;5939;56.522;14.950;2023-08-24T02:21:30;17.60;99.90
11764;DHT22;5939;56.522;14.950;2023-08-24T02:23:56;17.50;99.90
11764;DHT22;5939;56.522;14.950;2023-08-24T02:26:22;17.50;99.90
11764;DHT22;5939;56.522;14.950;2023-08-24T02:28:47;17.50;99.90
11764;DHT22;5939;56.522;14.950;2023-08-24T02:31:13;17.50;99.90
11764;DHT22;5939;56.522;14.950;2023-08-24T02:33:39;17.50;99.90
11764;DHT22;5939;56.522;14.950;2023-08-24T02:36:04;17.40;99.90
11764;DHT22;5939;56.522;14.950;2023-08-24T02:38:30;17.40;99.90
11764;DHT22;5939;56.522;14.950;2023-08-24T02:41:03;17.40;99.90
11764;DHT22;5939;56.522;14.950;2023-08-24T02:43:29;17.40;99.90
11764;DHT22;5939;56.522;14.950;2023-08-24T02:46:03;17.40;99.90
11764;DHT22;5939;56.522;14.950;2023-08-24T02:48:29;17.40;99.90
11764;DHT22;5939;56.522;14.950;2023-08-24T02:50:56;17.30;99.90
11764;DHT22;5939;56.522;14.950;2023-08-24T02:53:22;17.30;99.90
11764;DHT22;5939;56.522;14.950;2023-08-24T02:55:48;17.30;99.90
11764;DHT22;5939;56.522;14.950;2023-08-24T02:58:13;17.30;99.90
11764;DHT22;5939;56.522;14.950;2023-08-24T03:00:39;17.30;99.90
11764;DHT22;5939;56.522;14.950;2023-08-24T03:03:04;17.30;99.90
11764;DHT22;5939;56.522;14.950;2023-08-24T03:05:33;17.20;99.90
11764;DHT22;5939;56.522;14.950;2023-08-24T03:07:59;17.20;99.90
11764;DHT22;5939;56.522;14.950;2023-08-24T03:10:25;17.20;99.90
11764;DHT22;5939;56.522;14.950;2023-08-24T03:12:50;17.20;99.90
11764;DHT22;5939;56.522;14.950;2023-08-24T03:15:16;17.20;99.90
11764;DHT22;5939;56.522;14.950;2023-08-24T03:17:42;17.20;99.90
11764;DHT22;5939;56.522;14.950;2023-08-24T03:20:08;17.20;99.90
11764;DHT22;5939;56.522;14.950;2023-08-24T03:22:34;17.20;99.90
11764;DHT22;5939;56.522;14.950;2023-08-24T03:25:00;17.10;99.90
11764;DHT22;5939;56.522;14.950;2023-08-24T03:27:27;17.10;99.90
11764;DHT22;5939;56.522;14.950;2023-08-24T03:29:53;17.10;99.90
11764;DHT22;5939;56.522;14.950;2023-08-24T03:32:19;17.10;99.90
11764;DHT22;5939;56.522;14.950;2023-08-24T03:34:45;17.10;99.90
11764;DHT22;5939;56.522;14.950;2023-08-24T03:37:10;17.10;99.90
11764;DHT22;5939;56.522;14.950;2023-08-24T03:39:38;17.10;99.90
11764;DHT22;5939;56.522;14.950;2023-08-24T03:42:04;17.10;99.90
11764;DHT22;5939;56.522;14.950;2023-08-24T03:44:29;17.10;99.90
11764;DHT22;5939;56.522;14.950;2023-08-24T03:46:55;17.10;99.90
11764;DHT22;5939;56.522;14.950;2023-08-24T03:49:21;17.10;99.90
11764;DHT22;5939;56.522;14.950;2023-08-24T03:51:46;17.10;99.90
11764;DHT22;5939;56.522;14.950;2023-08-24T03:54:12;17.10;99.90
11764;DHT22;5939;56.522;14.950;2023-08-24T03:56:38;17.10;99.90
11764;DHT22;5939;56.522;14.950;2023-08-24T03:59:04;17.00;99.90
11764;DHT22;5939;56.522;14.950;2023-08-24T04:01:30;17.00;99.90
11764;DHT22;5939;56.522;14.950;2023-08-24T04:03:55;17.00;99.90
11764;DHT22;5939;56.522;14.950;2023-08-24T04:06:21;17.00;99.90
11764;DHT22;5939;56.522;14.950;2023-08-24T04:08:47;17.00;99.90
11764;DHT22;5939;56.522;14.950;2023-08-24T04:11:12;17.00;99.90
11764;DHT22;5939;56.522;14.950;2023-08-24T04:13:38;17.00;99.90
11764;DHT22;5939;56.522;14.950;2023-08-24T04:16:04;17.00;99.90
11764;DHT22;5939;56.522;14.950;2023-08-24T04:18:29;17.00;99.90
11764;DHT22;5939;56.522;14.950;2023-08-24T04:20:55;17.00;99.90
11764;DHT22;5939;56.522;14.950;2023-08-24T04:23:25;17.00;99.90
11764;DHT22;5939;56.522;14.950;2023-08-24T04:25:54;17.00;99.90
11764;DHT22;5939;56.522;14.950;2023-08-24T04:28:20;17.00;99.90
11764;DHT22;5939;56.522;14.950;2023-08-24T04:30:53;17.00;99.90
11764;DHT22;5939;56.522;14.950;2023-08-24T04:33:20;17.00;99.90
11764;DHT22;5939;56.522;14.950;2023-08-24T04:35:50;17.00;99.90
11764;DHT22;5939;56.522;14.950;2023-08-24T04:38:16;17.00;99.90
11764;DHT22;5939;56.522;14.950;2023-08-24T04:40:53;17.00;99.90
11764;DHT22;5939;56.522;14.950;2023-08-24T04:43:20;17.00;99.90
11764;DHT22;5939;56.522;14.950;2023-08-24T04:45:47;17.00;99.90
11764;DHT22;5939;56.522;14.950;2023-08-24T04:48:18;17.00;99.90
11764;DHT22;5939;56.522;14.950;2023-08-24T04:50:45;17.00;99.90
11764;DHT22;5939;56.522;14.950;2023-08-24T04:53:15;17.00;99.90
11764;DHT22;5939;56.522;14.950;2023-08-24T04:55:42;17.00;99.90
11764;DHT22;5939;56.522;14.950;2023-08-24T04:58:11;17.00;99.90
11764;DHT22;5939;56.522;14.950;2023-08-24T05:00:37;17.00;99.90
11764;DHT22;5939;56.522;14.950;2023-08-24T05:03:05;17.00;99.90
11764;DHT22;5939;56.522;14.950;2023-08-24T05:05:34;17.00;99.90
11764;DHT22;5939;56.522;14.950;2023-08-24T05:08:01;17.00;99.90
11764;DHT22;5939;56.522;14.950;2023-08-24T05:10:30;17.00;99.90
11764;DHT22;5939;56.522;14.950;2023-08-24T05:12:56;17.00;99.90
11764;DHT22;5939;56.522;14.950;2023-08-24T05:15:22;17.00;99.90
11764;DHT22;5939;56.522;14.950;2023-08-24T05:17:48;17.00;99.90
11764;DHT22;5939;56.522;14.950;2023-08-24T05:20:14;17.00;99.90
11764;DHT22;5939;56.522;14.950;2023-08-24T05:22:39;17.00;99.90
11764;DHT22;5939;56.522;14.950;2023-08-24T05:25:06;17.00;99.90
11764;DHT22;5939;56.522;14.950;2023-08-24T05:27:31;17.00;99.90
11764;DHT22;5939;56.522;14.950;2023-08-24T05:29:57;17.10;99.90
11764;DHT22;5939;56.522;14.950;2023-08-24T05:32:23;17.10;99.90
11764;DHT22;5939;56.522;14.950;2023-08-24T05:34:49;17.00;99.90
11764;DHT22;5939;56.522;14.950;2023-08-24T05:37:15;17.10;99.90
11764;DHT22;5939;56.522;14.950;2023-08-24T05:39:40;17.10;99.90
11764;DHT22;5939;56.522;14.950;2023-08-24T05:42:06;17.10;99.90
11764;DHT22;5939;56.522;14.950;2023-08-24T05:44:32;17.10;99.90
11764;DHT22;5939;56.522;14.950;2023-08-24T05:46:57;17.10;99.90
11764;DHT22;5939;56.522;14.950;2023-08-24T05:49:23;17.10;99.90
11764;DHT22;5939;56.522;14.950;2023-08-24T05:51:51;17.20;99.90
11764;DHT22;5939;56.522;14.950;2023-08-24T05:54:17;17.20;99.90
11764;DHT22;5939;56.522;14.950;2023-08-24T05:56:44;17.30;99.90
11764;DHT22;5939;56.522;14.950;2023-08-24T05:59:10;17.30;99.90
11764;DHT22;5939;56.522;14.950;2023-08-24T06:01:36;17.40;99.90
11764;DHT22;5939;56.522;14.950;2023-08-24T06:04:05;17.40;99.90
11764;DHT22;5939;56.522;14.950;2023-08-24T06:06:31;17.50;99.90
11764;DHT22;5939;56.522;14.950;2023-08-24T06:08:57;17.50;99.90
11764;DHT22;5939;56.522;14.950;2023-08-24T06:11:22;17.60;99.90
11764;DHT22;5939;56.522;14.950;2023-08-24T06:13:49;17.60;99.90
11764;DHT22;5939;56.522;14.950;2023-08-24T06:16:14;17.70;99.90
11764;DHT22;5939;56.522;14.950;2023-08-24T06:18:40;17.80;99.90
11764;DHT22;5939;56.522;14.950;2023-08-24T06:21:06;17.80;99.90
11764;DHT22;5939;56.522;14.950;2023-08-24T06:23:33;17.90;99.90
11764;DHT22;5939;56.522;14.950;2023-08-24T06:25:59;17.90;99.90
11764;DHT22;5939;56.522;14.950;2023-08-24T06:28:26;18.00;99.90
11764;DHT22;5939;56.522;14.950;2023-08-24T06:30:52;18.00;99.90
11764;DHT22;5939;56.522;14.950;2023-08-24T06:33:18;18.00;99.90
11764;DHT22;5939;56.522;14.950;2023-08-24T06:35:44;18.00;99.90
11764;DHT22;5939;56.522;14.950;2023-08-24T06:38:09;18.00;99.90
11764;DHT22;5939;56.522;14.950;2023-08-24T06:40:35;18.10;99.90
11764;DHT22;5939;56.522;14.950;2023-08-24T06:43:00;18.10;99.90
11764;DHT22;5939;56.522;14.950;2023-08-24T06:45:26;18.10;99.90
11764;DHT22;5939;56.522;14.950;2023-08-24T06:47:52;18.10;99.90
11764;DHT22;5939;56.522;14.950;2023-08-24T06:50:18;18.20;99.90
11764;DHT22;5939;56.522;14.950;2023-08-24T06:52:45;18.20;99.90
11764;DHT22;5939;56.522;14.950;2023-08-24T06:55:10;18.20;99.90
11764;DHT22;5939;56.522;14.950;2023-08-24T06:57:37;18.20;99.90
11764;DHT22;5939;56.522;14.950;2023-08-24T07:00:03;18.20;99.90
11764;DHT22;5939;56.522;14.950;2023-08-24T07:02:37;18.30;99.90
11764;DHT22;5939;56.522;14.950;2023-08-24T07:05:03;18.30;99.90
11764;DHT22;5939;56.522;14.950;2023-08-24T07:07:34;18.30;99.90
11764;DHT22;5939;56.522;14.950;2023-08-24T07:10:00;18.40;99.90
11764;DHT22;5939;56.522;14.950;2023-08-24T07:12:26;18.40;99.90
11764;DHT22;5939;56.522;14.950;2023-08-24T07:14:51;18.50;99.90
11764;DHT22;5939;56.522;14.950;2023-08-24T07:17:17;18.50;99.90
11764;DHT22;5939;56.522;14.950;2023-08-24T07:19:43;18.60;99.90
11764;DHT22;5939;56.522;14.950;2023-08-24T07:22:09;18.60;99.90
11764;DHT22;5939;56.522;14.950;2023-08-24T07:24:34;18.70;99.90
11764;DHT22;5939;56.522;14.950;2023-08-24T07:27:02;18.80;99.90
11764;DHT22;5939;56.522;14.950;2023-08-24T07:29:29;18.80;99.90
11764;DHT22;5939;56.522;14.950;2023-08-24T07:31:54;18.90;99.90
11764;DHT22;5939;56.522;14.950;2023-08-24T07:34:20;18.90;99.90
11764;DHT22;5939;56.522;14.950;2023-08-24T07:36:48;19.00;99.90
11764;DHT22;5939;56.522;14.950;2023-08-24T07:39:14;19.00;99.90
11764;DHT22;5939;56.522;14.950;2023-08-24T07:41:41;19.00;99.90
11764;DHT22;5939;56.522;14.950;2023-08-24T07:44:07;19.10;99.90
11764;DHT22;5939;56.522;14.950;2023-08-24T07:46:33;19.10;99.90
11764;DHT22;5939;56.522;14.950;2023-08-24T07:48:58;19.20;99.90
11764;DHT22;5939;56.522;14.950;2023-08-24T07:51:24;19.20;99.90
11764;DHT22;5939;56.522;14.950;2023-08-24T07:53:50;19.30;99.90
11764;DHT22;5939;56.522;14.950;2023-08-24T07:56:18;19.30;99.90
11764;DHT22;5939;56.522;14.950;2023-08-24T07:58:44;19.40;99.90
11764;DHT22;5939;56.522;14.950;2023-08-24T08:01:10;19.50;99.90
11764;DHT22;5939;56.522;14.950;2023-08-24T08:03:35;19.60;99.90
11764;DHT22;5939;56.522;14.950;2023-08-24T08:06:01;19.70;99.90
11764;DHT22;5939;56.522;14.950;2023-08-24T08:08:27;19.70;99.90
11764;DHT22;5939;56.522;14.950;2023-08-24T08:11:11;19.90;99.90
11764;DHT22;5939;56.522;14.950;2023-08-24T08:13:36;19.90;99.90
11764;DHT22;5939;56.522;14.950;2023-08-24T08:16:06;20.00;99.90
11764;DHT22;5939;56.522;14.950;2023-08-24T08:18:33;20.10;99.90
11764;DHT22;5939;56.522;14.950;2023-08-24T08:20:59;20.20;99.90
11764;DHT22;5939;56.522;14.950;2023-08-24T08:23:25;20.30;99.90
11764;DHT22;5939;56.522;14.950;2023-08-24T08:25:50;20.40;99.90
11764;DHT22;5939;56.522;14.950;2023-08-24T08:28:17;20.40;99.90
11764;DHT22;5939;56.522;14.950;2023-08-24T08:30:44;20.50;99.90
11764;DHT22;5939;56.522;14.950;2023-08-24T08:33:10;20.60;99.90
11764;DHT22;5939;56.522;14.950;2023-08-24T08:35:37;20.60;99.90
11764;DHT22;5939;56.522;14.950;2023-08-24T08:38:05;20.70;99.90
11764;DHT22;5939;56.522;14.950;2023-08-24T08:40:31;20.70;99.90
11764;DHT22;5939;56.522;14.950;2023-08-24T08:42:57;20.80;99.90
11764;DHT22;5939;56.522;14.950;2023-08-24T08:45:28;20.80;99.90
11764;DHT22;5939;56.522;14.950;2023-08-24T08:48:01;20.90;99.90
11764;DHT22;5939;56.522;14.950;2023-08-24T08:50:27;20.90;99.90
11764;DHT22;5939;56.522;14.950;2023-08-24T08:52:53;21.00;99.90
11764;DHT22;5939;56.522;14.950;2023-08-24T08:55:19;21.00;99.90
11764;DHT22;5939;56.522;14.950;2023-08-24T08:57:48;21.00;99.90
11764;DHT22;5939;56.522;14.950;2023-08-24T09:00:15;21.10;99.90
11764;DHT22;5939;56.522;14.950;2023-08-24T09:02:46;21.10;99.90
11764;DHT22;5939;56.522;14.950;2023-08-24T09:05:14;21.20;99.90
11764;DHT22;5939;56.522;14.950;2023-08-24T09:07:40;21.20;99.90
11764;DHT22;5939;56.522;14.950;2023-08-24T09:10:06;21.30;99.90
11764;DHT22;5939;56.522;14.950;2023-08-24T09:12:33;21.30;99.90
11764;DHT22;5939;56.522;14.950;2023-08-24T09:14:59;21.30;99.90
11764;DHT22;5939;56.522;14.950;2023-08-24T09:17:25;21.40;99.90
11764;DHT22;5939;56.522;14.950;2023-08-24T09:19:53;21.40;99.90
11764;DHT22;5939;56.522;14.950;2023-08-24T09:22:19;21.40;99.90
11764;DHT22;5939;56.522;14.950;2023-08-24T09:24:45;21.50;99.90
11764;DHT22;5939;56.522;14.950;2023-08-24T09:27:20;21.50;99.90
11764;DHT22;5939;56.522;14.950;2023-08-24T09:29:51;21.60;99.90
11764;DHT22;5939;56.522;14.950;2023-08-24T09:32:30;21.60;99.90
11764;DHT22;5939;56.522;14.950;2023-08-24T09:35:08;21.70;99.90
11764;DHT22;5939;56.522;14.950;2023-08-24T09:37:34;21.70;99.90
11764;DHT22;5939;56.522;14.950;2023-08-24T09:40:05;21.80;99.90
11764;DHT22;5939;56.522;14.950;2023-08-24T09:42:41;21.80;99.90
11764;DHT22;5939;56.522;14.950;2023-08-24T09:45:08;21.90;99.90
11764;DHT22;5939;56.522;14.950;2023-08-24T09:47:36;21.90;99.90
11764;DHT22;5939;56.522;14.950;2023-08-24T09:50:03;21.90;99.90
11764;DHT22;5939;56.522;14.950;2023-08-24T09:52:32;21.90;99.90
11764;DHT22;5939;56.522;14.950;2023-08-24T09:55:04;22.00;99.90
11764;DHT22;5939;56.522;14.950;2023-08-24T09:57:39;22.00;99.90
11764;DHT22;5939;56.522;14.950;2023-08-24T10:00:09;22.00;99.90
11764;DHT22;5939;56.522;14.950;2023-08-24T10:02:56;22.10;99.90
11764;DHT22;5939;56.522;14.950;2023-08-24T10:05:26;22.10;99.90
11764;DHT22;5939;56.522;14.950;2023-08-24T10:07:55;22.10;99.90
11764;DHT22;5939;56.522;14.950;2023-08-24T10:10:23;22.10;99.90
11764;DHT22;5939;56.522;14.950;2023-08-24T10:12:59;22.10;99.90
11764;DHT22;5939;56.522;14.950;2023-08-24T10:15:26;22.10;99.90
11764;DHT22;5939;56.522;14.950;2023-08-24T10:17:52;22.20;99.90
11764;DHT22;5939;56.522;14.950;2023-08-24T10:20:22;22.20;99.90
11764;DHT22;5939;56.522;14.950;2023-08-24T10:22:49;22.20;99.90
11764;DHT22;5939;56.522;14.950;2023-08-24T10:25:16;22.10;99.90
11764;DHT22;5939;56.522;14.950;2023-08-24T10:27:45;22.10;99.90
11764;DHT22;5939;56.522;14.950;2023-08-24T10:30:13;22.10;99.90
11764;DHT22;5939;56.522;14.950;2023-08-24T10:32:40;22.10;99.90
11764;DHT22;5939;56.522;14.950;2023-08-24T10:35:06;22.20;99.90
11764;DHT22;5939;56.522;14.950;2023-08-24T10:37:32;22.20;99.90
11764;DHT22;5939;56.522;14.950;2023-08-24T10:40:00;22.20;99.90
11764;DHT22;5939;56.522;14.950;2023-08-24T10:42:26;22.30;99.90
11764;DHT22;5939;56.522;14.950;2023-08-24T10:44:52;22.30;99.90
11764;DHT22;5939;56.522;14.950;2023-08-24T10:47:22;22.30;99.90
11764;DHT22;5939;56.522;14.950;2023-08-24T10:49:58;22.40;99.90
11764;DHT22;5939;56.522;14.950;2023-08-24T10:52:30;22.40;99.90
11764;DHT22;5939;56.522;14.950;2023-08-24T10:55:00;22.40;99.90
11764;DHT22;5939;56.522;14.950;2023-08-24T10:57:38;22.40;99.90
11764;DHT22;5939;56.522;14.950;2023-08-24T11:00:10;22.40;99.90
11764;DHT22;5939;56.522;14.950;2023-08-24T11:02:43;22.50;99.90
11764;DHT22;5939;56.522;14.950;2023-08-24T11:08:01;22.60;99.90
11764;DHT22;5939;56.522;14.950;2023-08-24T11:13:13;22.70;99.90
11764;DHT22;5939;56.522;14.950;2023-08-24T11:15:43;22.70;99.90
11764;DHT22;5939;56.522;14.950;2023-08-24T11:18:20;22.80;99.90
11764;DHT22;5939;56.522;14.950;2023-08-24T11:21:01;22.80;99.90
11764;DHT22;5939;56.522;14.950;2023-08-24T11:23:30;22.90;99.90
11764;DHT22;5939;56.522;14.950;2023-08-24T11:25:58;22.90;99.90
11764;DHT22;5939;56.522;14.950;2023-08-24T11:28:26;23.00;99.90
11764;DHT22;5939;56.522;14.950;2023-08-24T11:30:52;23.10;99.90
11764;DHT22;5939;56.522;14.950;2023-08-24T11:33:33;23.10;99.90
11764;DHT22;5939;56.522;14.950;2023-08-24T11:36:00;23.20;99.90
11764;DHT22;5939;56.522;14.950;2023-08-24T11:38:41;23.30;99.90
11764;DHT22;5939;56.522;14.950;2023-08-24T11:41:16;23.30;99.90
11764;DHT22;5939;56.522;14.950;2023-08-24T11:43:47;23.40;99.90
11764;DHT22;5939;56.522;14.950;2023-08-24T11:46:15;23.50;99.90
11764;DHT22;5939;56.522;14.950;2023-08-24T11:48:41;23.50;99.90
11764;DHT22;5939;56.522;14.950;2023-08-24T11:51:11;23.50;99.90
11764;DHT22;5939;56.522;14.950;2023-08-24T11:53:41;23.60;99.90
11764;DHT22;5939;56.522;14.950;2023-08-24T11:56:11;23.60;99.90
11764;DHT22;5939;56.522;14.950;2023-08-24T11:58:41;23.60;99.90
11764;DHT22;5939;56.522;14.950;2023-08-24T12:01:08;23.60;99.90
11764;DHT22;5939;56.522;14.950;2023-08-24T12:03:35;23.60;99.90
11764;DHT22;5939;56.522;14.950;2023-08-24T12:06:01;23.60;99.90
11764;DHT22;5939;56.522;14.950;2023-08-24T12:08:29;23.60;99.90
11764;DHT22;5939;56.522;14.950;2023-08-24T12:10:54;23.60;99.90
11764;DHT22;5939;56.522;14.950;2023-08-24T12:13:21;23.60;99.90
11764;DHT22;5939;56.522;14.950;2023-08-24T12:15:47;23.60;99.90
11764;DHT22;5939;56.522;14.950;2023-08-24T12:18:16;23.60;99.90
11764;DHT22;5939;56.522;14.950;2023-08-24T12:20:42;23.60;99.90
11764;DHT22;5939;56.522;14.950;2023-08-24T12:23:09;23.60;99.90
11764;DHT22;5939;56.522;14.950;2023-08-24T12:25:42;23.60;99.90
11764;DHT22;5939;56.522;14.950;2023-08-24T12:28:13;23.60;99.90
11764;DHT22;5939;56.522;14.950;2023-08-24T12:30:52;23.60;99.90
11764;DHT22;5939;56.522;14.950;2023-08-24T12:33:26;23.60;99.90
11764;DHT22;5939;56.522;14.950;2023-08-24T12:35:53;23.60;99.90
11764;DHT22;5939;56.522;14.950;2023-08-24T12:38:21;23.60;99.90
11764;DHT22;5939;56.522;14.950;2023-08-24T12:40:47;23.60;99.90
11764;DHT22;5939;56.522;14.950;2023-08-24T12:43:12;23.60;99.90
11764;DHT22;5939;56.522;14.950;2023-08-24T12:45:39;23.70;99.90
11764;DHT22;5939;56.522;14.950;2023-08-24T12:48:05;23.70;99.90
11764;DHT22;5939;56.522;14.950;2023-08-24T12:50:33;23.70;99.90
11764;DHT22;5939;56.522;14.950;2023-08-24T12:52:58;23.70;99.90
11764;DHT22;5939;56.522;14.950;2023-08-24T12:55:29;23.70;99.90
11764;DHT22;5939;56.522;14.950;2023-08-24T12:57:55;23.70;99.90
11764;DHT22;5939;56.522;14.950;2023-08-24T13:00:20;23.70;99.90
11764;DHT22;5939;56.522;14.950;2023-08-24T13:02:50;23.60;99.90
11764;DHT22;5939;56.522;14.950;2023-08-24T13:05:16;23.70;99.90
11764;DHT22;5939;56.522;14.950;2023-08-24T13:07:42;23.60;99.90
11764;DHT22;5939;56.522;14.950;2023-08-24T13:10:08;23.60;99.90
11764;DHT22;5939;56.522;14.950;2023-08-24T13:12:34;23.60;99.90
11764;DHT22;5939;56.522;14.950;2023-08-24T13:15:01;23.60;99.90
11764;DHT22;5939;56.522;14.950;2023-08-24T13:17:29;23.60;99.90
11764;DHT22;5939;56.522;14.950;2023-08-24T13:19:55;23.60;99.90
11764;DHT22;5939;56.522;14.950;2023-08-24T13:22:20;23.60;99.90
11764;DHT22;5939;56.522;14.950;2023-08-24T13:24:46;23.50;99.90
11764;DHT22;5939;56.522;14.950;2023-08-24T13:27:12;23.50;99.90
11764;DHT22;5939;56.522;14.950;2023-08-24T13:29:38;23.50;99.90
11764;DHT22;5939;56.522;14.950;2023-08-24T13:32:04;23.50;99.90
11764;DHT22;5939;56.522;14.950;2023-08-24T13:34:30;23.40;99.90
11764;DHT22;5939;56.522;14.950;2023-08-24T13:36:57;23.40;99.90
11764;DHT22;5939;56.522;14.950;2023-08-24T13:39:25;23.40;99.90
11764;DHT22;5939;56.522;14.950;2023-08-24T13:41:50;23.40;99.90
11764;DHT22;5939;56.522;14.950;2023-08-24T13:44:16;23.30;99.90
11764;DHT22;5939;56.522;14.950;2023-08-24T13:46:42;23.30;99.90
11764;DHT22;5939;56.522;14.950;2023-08-24T13:49:07;23.30;99.90
11764;DHT22;5939;56.522;14.950;2023-08-24T13:51:34;23.30;99.90
11764;DHT22;5939;56.522;14.950;2023-08-24T13:53:59;23.20;99.90
11764;DHT22;5939;56.522;14.950;2023-08-24T13:56:25;23.20;99.90
11764;DHT22;5939;56.522;14.950;2023-08-24T13:58:51;23.20;99.90
11764;DHT22;5939;56.522;14.950;2023-08-24T14:01:16;23.10;99.90
11764;DHT22;5939;56.522;14.950;2023-08-24T14:03:42;23.10;99.90
11764;DHT22;5939;56.522;14.950;2023-08-24T14:06:09;23.10;99.90
11764;DHT22;5939;56.522;14.950;2023-08-24T14:08:35;23.10;99.90
11764;DHT22;5939;56.522;14.950;2023-08-24T14:11:01;23.00;99.90
11764;DHT22;5939;56.522;14.950;2023-08-24T14:13:28;23.00;99.90
11764;DHT22;5939;56.522;14.950;2023-08-24T14:15:54;23.00;99.90
11764;DHT22;5939;56.522;14.950;2023-08-24T14:18:21;23.00;99.90
11764;DHT22;5939;56.522;14.950;2023-08-24T14:20:47;22.90;99.90
11764;DHT22;5939;56.522;14.950;2023-08-24T14:23:13;22.90;99.90
11764;DHT22;5939;56.522;14.950;2023-08-24T14:25:38;22.90;99.90
11764;DHT22;5939;56.522;14.950;2023-08-24T14:28:04;22.90;99.90
11764;DHT22;5939;56.522;14.950;2023-08-24T14:30:30;22.80;99.90
11764;DHT22;5939;56.522;14.950;2023-08-24T14:32:55;22.80;99.90
11764;DHT22;5939;56.522;14.950;2023-08-24T14:35:21;22.80;99.90
11764;DHT22;5939;56.522;14.950;2023-08-24T14:37:46;22.80;99.90
11764;DHT22;5939;56.522;14.950;2023-08-24T14:40:12;22.80;99.90
11764;DHT22;5939;56.522;14.950;2023-08-24T14:42:38;22.70;99.90
11764;DHT22;5939;56.522;14.950;2023-08-24T14:45:04;22.70;99.90
11764;DHT22;5939;56.522;14.950;2023-08-24T14:47:29;22.70;99.90
11764;DHT22;5939;56.522;14.950;2023-08-24T14:49:55;22.60;99.90
11764;DHT22;5939;56.522;14.950;2023-08-24T14:52:21;22.60;99.90
11764;DHT22;5939;56.522;14.950;2023-08-24T14:54:46;22.60;99.90
11764;DHT22;5939;56.522;14.950;2023-08-24T14:57:12;22.60;99.90
11764;DHT22;5939;56.522;14.950;2023-08-24T14:59:39;22.50;99.90
11764;DHT22;5939;56.522;14.950;2023-08-24T15:02:04;22.50;99.90
11764;DHT22;5939;56.522;14.950;2023-08-24T15:04:30;22.50;99.90
11764;DHT22;5939;56.522;14.950;2023-08-24T15:06:56;22.40;99.90
11764;DHT22;5939;56.522;14.950;2023-08-24T15:09:22;22.40;99.90
11764;DHT22;5939;56.522;14.950;2023-08-24T15:11:49;22.40;99.90
11764;DHT22;5939;56.522;14.950;2023-08-24T15:14:15;22.30;99.90
11764;DHT22;5939;56.522;14.950;2023-08-24T15:16:40;22.30;99.90
11764;DHT22;5939;56.522;14.950;2023-08-24T15:19:06;22.30;99.90
11764;DHT22;5939;56.522;14.950;2023-08-24T15:21:31;22.30;99.90
11764;DHT22;5939;56.522;14.950;2023-08-24T15:23:57;22.20;99.90
11764;DHT22;5939;56.522;14.950;2023-08-24T15:26:23;22.20;99.90
11764;DHT22;5939;56.522;14.950;2023-08-24T15:31:36;22.20;99.90
11764;DHT22;5939;56.522;14.950;2023-08-24T15:34:02;22.10;99.90
11764;DHT22;5939;56.522;14.950;2023-08-24T15:36:28;22.10;99.90
11764;DHT22;5939;56.522;14.950;2023-08-24T15:38:54;22.10;99.90
11764;DHT22;5939;56.522;14.950;2023-08-24T15:41:19;22.00;99.90
11764;DHT22;5939;56.522;14.950;2023-08-24T15:43:45;22.00;99.90
11764;DHT22;5939;56.522;14.950;2023-08-24T15:46:10;22.00;99.90